PILOTS ONLINE: 308    ATC ONLINE: 50

KBLH - Blythe Airport

Location

IATA BLH
City Blythe
Country  United States
Latitude 33° 37' 9" N
Longitude 114° 43' 1" W
Elevation 399 ft
Type Medium Airport

Runways

08/26 6543 ft / 150 ft
17/35 5800 ft / 100 ft

Weather

METAR
2014/07/31 02:52
KBLH 310252Z AUTO A2972 RMK AO2 SLPNO 55000 PWINO $
TAF
2014/07/30 18:21
TAF KBLH 301720Z 3018/3118 17009KT P6SM SKC 
     FM310100 21009KT P6SM FEW120 SCT250 
     FM311100 18006KT P6SM SCT250

Outbound flights

Inbound flights